Time;durP1;ratioP1;P1;durP2;ratioP2;P2;SDS_P1;SDS_P2;PMS_P1;PMS_P2;Temp;Humidity;BMP_temperature;BMP_pressure;BME280_temperature;BME280_humidity;BME280_pressure;Samples;Min_cycle;Max_cycle;Signal;HPM_P1;HPM_P2
2023/10/30 00:01:13;;;;;;;5.60;0.90;;;12.20;99.90;;;;;;15476230;23;20461;-34
2023/10/30 00:07:15;;;;;;;4.80;0.88;;;12.10;99.90;;;;;;15476455;23;20020;-34
2023/10/30 00:13:17;;;;;;;5.72;0.98;;;12.10;99.90;;;;;;15473727;23;20098;-33
2023/10/30 00:19:18;;;;;;;7.22;0.95;;;12.10;99.90;;;;;;15475944;22;20035;-34
2023/10/30 00:25:21;;;;;;;5.68;0.82;;;12.00;99.90;;;;;;15479163;23;20024;-34
2023/10/30 00:31:23;;;;;;;6.63;1.00;;;12.00;99.90;;;;;;15456427;23;20073;-34
2023/10/30 00:37:25;;;;;;;5.00;1.10;;;12.10;99.90;;;;;;15475381;23;20048;-34
2023/10/30 00:43:27;;;;;;;4.50;0.80;;;12.10;99.90;;;;;;15480777;23;20466;-34
2023/10/30 00:49:28;;;;;;;6.25;1.40;;;12.00;99.90;;;;;;15454920;23;20024;-34
2023/10/30 00:55:30;;;;;;;4.43;0.80;;;12.10;99.90;;;;;;15476014;23;20102;-34
2023/10/30 01:01:32;;;;;;;6.55;0.90;;;12.10;99.90;;;;;;15480243;23;20032;-34
2023/10/30 01:07:34;;;;;;;6.70;1.00;;;12.10;99.90;;;;;;15473831;23;20024;-34
2023/10/30 01:13:36;;;;;;;4.28;0.80;;;12.20;99.90;;;;;;15474448;23;20436;-34
2023/10/30 01:19:38;;;;;;;5.25;1.00;;;12.20;99.90;;;;;;15481989;22;20028;-34
2023/10/30 01:25:40;;;;;;;6.57;1.10;;;12.20;99.90;;;;;;15454016;23;20044;-34
2023/10/30 01:31:42;;;;;;;6.30;0.90;;;12.20;99.90;;;;;;15475976;23;20051;-34
2023/10/30 01:37:44;;;;;;;9.85;1.20;;;12.10;99.90;;;;;;15473182;23;20707;-33
2023/10/30 01:43:46;;;;;;;10.50;1.70;;;12.10;99.90;;;;;;15444069;23;20024;-34
2023/10/30 01:49:49;;;;;;;8.77;1.10;;;12.00;99.90;;;;;;15478503;23;20454;-34
2023/10/30 01:55:52;;;;;;;7.15;0.90;;;12.00;99.90;;;;;;15486054;23;20441;-34
2023/10/30 02:01:54;;;;;;;4.90;0.87;;;12.00;99.90;;;;;;15454168;23;20390;-34
2023/10/30 02:07:57;;;;;;;5.50;1.00;;;11.90;99.90;;;;;;15484084;23;20250;-34
2023/10/30 02:13:58;;;;;;;5.93;1.17;;;11.80;99.90;;;;;;15465349;23;20110;-34
2023/10/30 02:20:00;;;;;;;5.95;1.30;;;11.80;99.90;;;;;;15479208;22;20024;-34
2023/10/30 02:26:02;;;;;;;8.48;1.10;;;11.80;99.90;;;;;;15480002;23;20413;-34
2023/10/30 02:32:04;;;;;;;6.30;1.08;;;11.80;99.90;;;;;;15481320;23;20074;-33
2023/10/30 02:38:06;;;;;;;6.50;1.10;;;11.80;99.90;;;;;;15477995;23;20644;-34
2023/10/30 02:44:08;;;;;;;7.90;1.13;;;11.90;99.90;;;;;;15482320;23;20024;-33
2023/10/30 02:50:10;;;;;;;4.90;0.82;;;11.80;99.90;;;;;;15479056;23;20329;-34
2023/10/30 02:56:12;;;;;;;1.70;0.57;;;11.80;99.90;;;;;;15451232;23;20035;-33
2023/10/30 03:02:14;;;;;;;6.75;1.10;;;11.80;99.90;;;;;;15476181;23;20119;-34
2023/10/30 03:08:16;;;;;;;4.35;0.95;;;11.80;99.90;;;;;;15482752;23;20024;-34
2023/10/30 03:14:18;;;;;;;11.02;2.20;;;11.80;99.90;;;;;;15476888;23;20047;-33
2023/10/30 03:20:20;;;;;;;5.43;1.13;;;11.80;99.90;;;;;;15458223;22;20020;-33
2023/10/30 03:26:23;;;;;;;9.52;1.00;;;11.80;99.90;;;;;;15458525;23;20043;-34
2023/10/30 03:32:25;;;;;;;4.77;1.00;;;11.80;99.90;;;;;;15485615;23;20050;-34
2023/10/30 03:38:27;;;;;;;7.03;1.45;;;11.90;99.90;;;;;;15451508;23;20031;-34
2023/10/30 03:44:29;;;;;;;5.60;0.88;;;11.80;99.90;;;;;;15469367;23;20020;-33
2023/10/30 03:50:31;;;;;;;8.00;1.25;;;11.80;99.90;;;;;;15477266;23;20028;-34
2023/10/30 03:56:33;;;;;;;9.65;1.55;;;11.80;99.90;;;;;;15483591;23;20036;-33
2023/10/30 04:02:35;;;;;;;3.10;0.82;;;11.80;99.90;;;;;;15484025;23;20020;-34
2023/10/30 04:08:37;;;;;;;5.85;1.08;;;11.80;99.90;;;;;;15486441;23;20020;-34
2023/10/30 04:14:38;;;;;;;7.18;1.10;;;11.80;99.90;;;;;;15481723;23;20024;-33
2023/10/30 04:20:40;;;;;;;9.43;1.40;;;11.90;99.90;;;;;;15489213;22;20362;-34
2023/10/30 04:26:42;;;;;;;6.95;1.38;;;11.90;99.90;;;;;;15476645;23;20031;-34
2023/10/30 04:32:44;;;;;;;7.47;1.10;;;11.80;99.90;;;;;;15449578;23;20473;-34
2023/10/30 04:38:46;;;;;;;7.05;1.10;;;11.80;99.90;;;;;;15485313;23;20058;-33
2023/10/30 04:44:48;;;;;;;6.88;1.25;;;11.80;99.90;;;;;;15485738;23;20024;-34
2023/10/30 04:50:50;;;;;;;10.40;1.17;;;11.70;99.90;;;;;;15484268;23;20465;-34
2023/10/30 04:56:51;;;;;;;9.07;1.48;;;11.70;99.90;;;;;;15482678;23;20028;-33
2023/10/30 05:02:53;;;;;;;7.53;1.00;;;11.70;99.90;;;;;;15486393;23;20020;-34
2023/10/30 05:08:55;;;;;;;5.38;1.00;;;11.70;99.90;;;;;;15489668;23;20126;-33
2023/10/30 05:14:58;;;;;;;7.72;1.80;;;11.80;99.90;;;;;;15482439;23;20028;-34
2023/10/30 05:21:01;;;;;;;6.40;1.45;;;11.70;99.90;;;;;;15485244;22;20024;-33
2023/10/30 05:27:04;;;;;;;5.68;0.95;;;11.70;99.90;;;;;;15486521;23;20044;-33
2023/10/30 05:33:05;;;;;;;6.00;0.98;;;11.60;99.90;;;;;;15483012;23;20028;-33
2023/10/30 05:39:07;;;;;;;3.45;0.82;;;11.60;99.90;;;;;;15459483;23;20047;-33
2023/10/30 05:45:09;;;;;;;5.40;1.13;;;11.60;99.90;;;;;;15480135;23;20620;-33
2023/10/30 05:51:11;;;;;;;5.43;1.17;;;11.60;99.90;;;;;;15459283;23;20510;-33
2023/10/30 05:57:15;;;;;;;7.68;1.13;;;11.50;99.90;;;;;;15484640;23;20147;-33
2023/10/30 06:03:17;;;;;;;8.23;1.60;;;11.60;99.90;;;;;;15454599;23;20103;-33
2023/10/30 06:09:18;;;;;;;5.00;1.13;;;11.60;99.90;;;;;;15452991;23;20042;-33
2023/10/30 06:15:20;;;;;;;8.80;1.60;;;11.60;99.90;;;;;;15470639;23;20077;-33
2023/10/30 06:21:22;;;;;;;6.55;1.02;;;11.60;99.90;;;;;;15453540;23;20031;-33
2023/10/30 06:27:25;;;;;;;8.27;1.80;;;11.50;99.90;;;;;;15476939;23;20031;-33
2023/10/30 06:33:27;;;;;;;6.05;1.10;;;11.60;99.90;;;;;;15471224;23;20027;-33
2023/10/30 06:39:29;;;;;;;5.00;1.20;;;11.60;99.90;;;;;;15467163;23;20024;-33
2023/10/30 06:45:31;;;;;;;9.77;1.42;;;11.60;99.90;;;;;;15474013;23;20052;-33
2023/10/30 06:51:33;;;;;;;8.25;1.10;;;11.50;99.90;;;;;;15475779;23;20050;-33
2023/10/30 06:57:35;;;;;;;5.18;1.00;;;11.60;99.90;;;;;;15474292;23;20086;-33
2023/10/30 07:03:37;;;;;;;9.55;1.38;;;11.60;99.90;;;;;;15472360;23;20058;-33
2023/10/30 07:09:39;;;;;;;5.13;1.02;;;11.60;99.90;;;;;;15446812;23;20020;-33
2023/10/30 07:15:41;;;;;;;6.75;1.10;;;11.70;99.90;;;;;;15475724;23;20024;-33
2023/10/30 07:21:43;;;;;;;6.55;1.40;;;11.70;99.90;;;;;;15469759;22;20024;-33
2023/10/30 07:27:47;;;;;;;4.28;1.08;;;11.70;99.90;;;;;;15482394;23;20016;-33
2023/10/30 07:33:49;;;;;;;7.25;1.30;;;11.70;99.90;;;;;;15462563;23;20066;-33
2023/10/30 07:39:51;;;;;;;6.30;1.08;;;11.70;99.90;;;;;;15477690;23;20024;-32
2023/10/30 07:45:53;;;;;;;6.35;0.98;;;11.70;99.90;;;;;;15466647;23;20048;-33
2023/10/30 07:51:55;;;;;;;5.50;1.10;;;11.70;99.90;;;;;;15479269;23;20024;-33
2023/10/30 07:57:57;;;;;;;6.82;1.20;;;11.60;99.90;;;;;;15449379;23;20028;-33
2023/10/30 08:03:59;;;;;;;8.20;1.27;;;11.60;99.90;;;;;;15469539;23;20024;-33
2023/10/30 08:10:03;;;;;;;10.43;1.85;;;11.60;99.90;;;;;;15467331;23;20534;-33
2023/10/30 08:16:05;;;;;;;7.97;1.58;;;11.70;99.90;;;;;;15476149;23;20099;-33
2023/10/30 08:22:07;;;;;;;9.70;2.20;;;12.10;99.90;;;;;;15448324;23;20048;-33
2023/10/30 08:28:09;;;;;;;3.78;0.98;;;12.50;99.90;;;;;;15471244;23;20387;-33
2023/10/30 08:34:11;;;;;;;6.53;1.23;;;12.80;99.90;;;;;;15470977;23;20047;-33
2023/10/30 08:40:13;;;;;;;5.15;2.05;;;12.80;99.90;;;;;;15476573;23;20030;-34
2023/10/30 08:46:17;;;;;;;8.57;1.30;;;13.10;99.90;;;;;;15472691;23;20027;-33
2023/10/30 08:52:19;;;;;;;8.27;1.13;;;13.30;99.90;;;;;;15480461;23;20099;-33
2023/10/30 08:58:21;;;;;;;4.95;1.00;;;13.40;99.90;;;;;;15473675;23;20027;-34
2023/10/30 09:04:23;;;;;;;3.03;0.88;;;13.30;99.90;;;;;;15486131;23;20066;-34
2023/10/30 09:10:28;;;;;;;8.38;1.30;;;13.30;99.90;;;;;;15486234;23;20022;-33
2023/10/30 09:16:30;;;;;;;7.68;1.25;;;13.40;99.90;;;;;;15480432;23;20024;-33
2023/10/30 09:22:33;;;;;;;6.45;0.95;;;13.50;99.90;;;;;;15481913;22;20035;-33
2023/10/30 09:28:35;;;;;;;4.78;1.02;;;13.80;99.90;;;;;;15456242;23;20453;-33
2023/10/30 09:34:38;;;;;;;6.63;1.10;;;14.00;99.90;;;;;;15481320;23;20024;-33
2023/10/30 09:40:40;;;;;;;9.17;1.30;;;14.10;99.90;;;;;;15451040;23;20030;-34
2023/10/30 09:46:42;;;;;;;5.50;1.17;;;14.30;99.90;;;;;;15482226;23;20051;-34
2023/10/30 09:52:55;;;;;;;6.75;1.13;;;14.30;99.90;;;;;;15484475;23;20063;-34
2023/10/30 09:58:57;;;;;;;7.03;1.27;;;14.60;99.90;;;;;;15482272;23;20028;-34
2023/10/30 10:04:59;;;;;;;6.90;1.20;;;14.70;99.90;;;;;;15478206;23;20093;-34
2023/10/30 10:11:02;;;;;;;8.25;1.45;;;14.60;99.90;;;;;;15480825;23;20028;-34
2023/10/30 10:17:05;;;;;;;10.27;1.45;;;14.60;99.90;;;;;;15481922;22;20031;-34
2023/10/30 10:23:18;;;;;;;5.97;1.08;;;14.60;99.90;;;;;;15454808;23;20031;-34
2023/10/30 10:29:23;;;;;;;6.07;1.55;;;14.60;99.90;;;;;;15473582;23;20024;-34
2023/10/30 10:35:26;;;;;;;6.22;1.52;;;14.70;99.90;;;;;;15474518;23;20024;-34
2023/10/30 10:41:28;;;;;;;4.82;1.10;;;14.70;99.90;;;;;;15433618;23;20447;-34
2023/10/30 10:47:30;;;;;;;6.75;1.33;;;14.70;99.90;;;;;;15474630;23;20031;-34
2023/10/30 10:53:34;;;;;;;7.47;1.00;;;14.80;99.90;;;;;;15472574;23;20035;-34
2023/10/30 10:59:39;;;;;;;5.72;1.10;;;15.00;99.90;;;;;;15468472;23;20031;-34
2023/10/30 11:05:42;;;;;;;5.35;1.17;;;15.20;99.90;;;;;;15469742;23;20020;-34
2023/10/30 11:12:10;;;;;;;8.60;1.70;;;15.20;99.90;;;;;;15484987;23;20028;-34
2023/10/30 11:18:24;;;;;;;4.57;1.00;;;15.40;99.90;;;;;;15485737;22;20024;-34
2023/10/30 11:24:40;;;;;;;2.38;0.82;;;15.60;99.90;;;;;;15483695;23;20020;-34
2023/10/30 11:30:43;;;;;;;3.60;1.00;;;15.80;99.90;;;;;;15452809;23;20704;-34
2023/10/30 11:36:47;;;;;;;4.85;1.40;;;16.00;99.90;;;;;;15476893;23;20024;-34
2023/10/30 11:42:56;;;;;;;3.40;0.87;;;16.10;99.90;;;;;;15452674;23;20024;-34
2023/10/30 11:48:58;;;;;;;8.35;1.52;;;16.00;99.90;;;;;;15476637;23;20028;-35
2023/10/30 11:55:05;;;;;;;2.33;0.68;;;16.20;99.90;;;;;;15480232;23;20020;-35
2023/10/30 12:01:09;;;;;;;2.92;0.70;;;16.40;99.90;;;;;;15477296;23;20316;-34
2023/10/30 12:07:14;;;;;;;2.00;0.60;;;16.70;99.90;;;;;;15477702;23;20785;-34
2023/10/30 12:13:15;;;;;;;3.15;0.65;;;16.80;99.90;;;;;;15474716;23;20024;-34
2023/10/30 12:19:21;;;;;;;3.33;0.80;;;16.80;99.90;;;;;;15480821;22;20366;-34
2023/10/30 12:25:23;;;;;;;1.98;0.40;;;17.00;99.90;;;;;;15451696;23;20020;-33
2023/10/30 12:31:28;;;;;;;4.45;0.60;;;16.80;99.90;;;;;;15459129;23;20369;-34
2023/10/30 12:37:30;;;;;;;2.42;0.50;;;16.70;99.90;;;;;;15476094;23;20028;-34
2023/10/30 12:43:41;;;;;;;3.90;0.55;;;16.60;99.90;;;;;;15484391;23;20020;-34
2023/10/30 12:49:43;;;;;;;2.50;1.05;;;16.60;99.90;;;;;;15460352;23;20028;-34
2023/10/30 12:55:45;;;;;;;2.03;0.52;;;16.60;99.90;;;;;;15476900;23;20032;-35
2023/10/30 13:01:47;;;;;;;2.20;0.40;;;16.60;99.90;;;;;;15479763;23;20556;-33
2023/10/30 13:07:59;;;;;;;3.20;0.55;;;16.50;99.90;;;;;;15478962;23;20118;-33
2023/10/30 13:14:01;;;;;;;3.38;0.60;;;16.30;99.90;;;;;;15450067;23;20250;-33
2023/10/30 13:20:06;;;;;;;4.70;0.65;;;16.20;99.90;;;;;;15479857;22;20020;-32
2023/10/30 13:26:08;;;;;;;1.48;0.40;;;16.10;99.90;;;;;;15481709;23;20024;-33
2023/10/30 13:32:10;;;;;;;2.30;0.50;;;16.00;99.90;;;;;;15469615;23;20365;-33
2023/10/30 13:38:12;;;;;;;1.45;0.70;;;15.80;99.90;;;;;;15478852;23;20102;-32
2023/10/30 13:44:15;;;;;;;1.30;0.50;;;15.70;99.90;;;;;;15484608;23;20024;-33
2023/10/30 13:50:17;;;;;;;1.00;0.23;;;15.60;99.90;;;;;;15478308;23;20039;-34
2023/10/30 13:56:20;;;;;;;1.00;0.40;;;15.60;99.90;;;;;;15478047;23;20028;-33
2023/10/30 14:02:21;;;;;;;1.98;0.50;;;15.40;99.90;;;;;;15441168;23;20077;-33
2023/10/30 14:08:23;;;;;;;1.58;0.40;;;15.30;99.90;;;;;;15480667;23;20024;-33
2023/10/30 14:14:25;;;;;;;1.80;0.40;;;15.00;99.90;;;;;;15481427;23;20028;-34
2023/10/30 14:20:27;;;;;;;2.35;0.40;;;14.90;99.90;;;;;;15473034;22;20032;-33
2023/10/30 14:26:29;;;;;;;2.85;0.50;;;14.80;99.90;;;;;;15448831;23;20366;-34
2023/10/30 14:32:31;;;;;;;4.15;0.57;;;14.70;99.90;;;;;;15445482;23;20105;-33
2023/10/30 14:38:33;;;;;;;4.88;0.82;;;14.70;99.90;;;;;;15465444;23;20024;-34
2023/10/30 14:44:36;;;;;;;2.88;0.85;;;14.60;99.90;;;;;;15478615;23;20031;-33
2023/10/30 14:50:38;;;;;;;3.50;0.80;;;14.50;99.90;;;;;;15478193;23;20349;-34
2023/10/30 14:56:40;;;;;;;7.25;1.00;;;14.40;99.90;;;;;;15475592;23;20028;-33
2023/10/30 15:02:41;;;;;;;1.88;0.70;;;14.30;99.90;;;;;;15478343;23;20024;-34
2023/10/30 15:08:43;;;;;;;2.55;0.73;;;14.20;99.90;;;;;;15475832;23;20438;-34
2023/10/30 15:14:46;;;;;;;1.85;0.77;;;14.10;99.90;;;;;;15475473;23;20501;-33
2023/10/30 15:20:48;;;;;;;1.52;0.73;;;14.10;99.90;;;;;;15475413;22;20024;-33
2023/10/30 15:26:50;;;;;;;2.13;0.60;;;14.10;99.90;;;;;;15472100;23;20031;-34
2023/10/30 15:32:52;;;;;;;3.00;0.60;;;14.10;99.90;;;;;;15471414;23;20063;-33
2023/10/30 15:38:53;;;;;;;3.17;0.50;;;14.10;99.90;;;;;;15469468;23;20117;-34
2023/10/30 15:44:55;;;;;;;1.45;0.50;;;14.00;99.90;;;;;;15470259;23;20151;-33
2023/10/30 15:50:57;;;;;;;1.30;0.40;;;13.90;99.90;;;;;;15470962;23;20024;-34
2023/10/30 15:56:59;;;;;;;4.20;0.50;;;13.90;99.90;;;;;;15477446;23;20032;-34
2023/10/30 16:03:01;;;;;;;4.78;0.60;;;13.90;99.90;;;;;;15478956;23;20024;-34
2023/10/30 16:09:05;;;;;;;1.95;0.47;;;13.80;99.90;;;;;;15476282;23;20055;-33
2023/10/30 16:15:09;;;;;;;0.77;0.50;;;13.70;99.90;;;;;;15480336;23;20142;-34
2023/10/30 16:21:11;;;;;;;1.73;0.45;;;13.70;99.90;;;;;;15476433;22;20038;-33
2023/10/30 16:27:18;;;;;;;1.40;0.50;;;13.80;99.90;;;;;;15477729;23;20504;-34
2023/10/30 16:33:20;;;;;;;1.35;0.40;;;13.70;99.90;;;;;;15451583;23;20028;-33
2023/10/30 16:39:22;;;;;;;1.17;0.40;;;13.80;99.90;;;;;;15477073;23;20035;-34
2023/10/30 16:45:24;;;;;;;2.50;0.50;;;13.80;99.90;;;;;;15480644;23;20381;-34
2023/10/30 16:51:26;;;;;;;3.10;1.00;;;13.70;99.90;;;;;;15453499;23;20078;-33
2023/10/30 16:57:27;;;;;;;3.20;2.40;;;13.70;99.90;;;;;;15477085;23;20024;-34
2023/10/30 17:03:29;;;;;;;0.88;0.50;;;13.60;99.90;;;;;;15482016;23;20020;-34
2023/10/30 17:09:32;;;;;;;3.13;1.17;;;13.70;99.90;;;;;;15477109;23;20099;-34
2023/10/30 17:15:35;;;;;;;1.40;0.60;;;13.60;99.90;;;;;;15457114;23;20031;-34
2023/10/30 17:21:37;;;;;;;1.98;0.57;;;13.70;99.90;;;;;;15475931;22;20032;-34
2023/10/30 17:27:39;;;;;;;2.70;0.55;;;13.60;99.90;;;;;;15474746;23;20103;-34
2023/10/30 17:33:41;;;;;;;1.98;0.57;;;13.60;99.90;;;;;;15480277;23;20024;-33
2023/10/30 17:39:42;;;;;;;3.45;1.15;;;13.60;99.90;;;;;;15447987;23;20328;-34
2023/10/30 17:45:44;;;;;;;3.20;0.60;;;13.60;99.90;;;;;;15477945;23;20020;-34
2023/10/30 17:51:46;;;;;;;0.93;0.50;;;13.50;99.90;;;;;;15452094;23;20386;-34
2023/10/30 17:57:48;;;;;;;1.45;0.50;;;13.50;99.90;;;;;;15451521;23;20035;-34
2023/10/30 18:03:50;;;;;;;0.65;0.40;;;13.50;99.90;;;;;;15449360;23;20021;-34
2023/10/30 18:09:52;;;;;;;4.97;0.60;;;13.50;99.90;;;;;;15481396;23;20024;-34
2023/10/30 18:15:54;;;;;;;4.00;1.02;;;13.50;99.90;;;;;;15486734;23;20035;-34
2023/10/30 18:21:56;;;;;;;1.75;0.70;;;13.40;99.90;;;;;;15457966;23;20099;-34
2023/10/30 18:27:58;;;;;;;1.63;0.70;;;13.40;99.90;;;;;;15488015;23;20043;-34
2023/10/30 18:34:00;;;;;;;2.17;0.70;;;13.30;99.90;;;;;;15481469;23;20024;-34
2023/10/30 18:40:03;;;;;;;1.00;0.77;;;13.20;99.90;;;;;;15449428;23;20098;-34
2023/10/30 18:46:05;;;;;;;1.73;0.70;;;13.10;99.90;;;;;;15481958;23;20020;-34
2023/10/30 18:52:09;;;;;;;2.17;0.82;;;13.00;99.90;;;;;;15482226;23;20028;-34
2023/10/30 18:58:10;;;;;;;1.93;0.80;;;12.90;99.90;;;;;;15481920;23;20028;-34
2023/10/30 19:04:12;;;;;;;1.88;0.90;;;12.90;99.90;;;;;;15486824;23;20030;-34
2023/10/30 19:10:14;;;;;;;3.20;0.95;;;12.80;99.90;;;;;;15476835;23;20111;-34
2023/10/30 19:16:16;;;;;;;2.72;1.00;;;12.70;99.90;;;;;;15478093;23;20604;-34
2023/10/30 19:22:18;;;;;;;3.22;1.15;;;12.60;99.90;;;;;;15481010;22;20130;-34
2023/10/30 19:28:20;;;;;;;3.55;1.20;;;12.50;99.90;;;;;;15478273;23;20462;-33
2023/10/30 19:34:22;;;;;;;4.07;1.63;;;12.50;99.90;;;;;;15476550;23;20461;-33
2023/10/30 19:40:26;;;;;;;2.95;1.17;;;12.40;99.90;;;;;;15475499;23;20035;-34
2023/10/30 19:46:28;;;;;;;7.20;1.38;;;12.40;99.90;;;;;;15476468;23;20073;-34
2023/10/30 19:52:40;;;;;;;6.57;1.15;;;12.40;99.90;;;;;;15472978;23;20564;-34
2023/10/30 19:58:44;;;;;;;3.42;1.27;;;12.40;99.90;;;;;;15476975;23;20468;-35
2023/10/30 20:04:46;;;;;;;4.93;1.60;;;12.40;99.90;;;;;;15474792;23;20459;-34
2023/10/30 20:10:48;;;;;;;3.05;1.60;;;12.40;99.90;;;;;;15465319;23;20138;-34
2023/10/30 20:16:50;;;;;;;4.13;1.27;;;12.40;99.90;;;;;;15478504;23;20024;-34
2023/10/30 20:22:52;;;;;;;3.47;1.52;;;12.40;99.90;;;;;;15479221;22;20462;-34
2023/10/30 20:28:53;;;;;;;4.13;1.20;;;12.40;99.90;;;;;;15480178;23;20166;-34
2023/10/30 20:34:55;;;;;;;6.25;1.48;;;12.40;99.90;;;;;;15469259;23;20525;-34
2023/10/30 20:40:57;;;;;;;3.22;1.23;;;12.40;99.90;;;;;;15475711;23;20028;-34
2023/10/30 20:46:59;;;;;;;2.95;1.55;;;12.30;99.90;;;;;;15485898;23;20365;-39
2023/10/30 20:53:03;;;;;;;4.07;1.70;;;12.40;99.90;;;;;;15456143;23;20110;-34
2023/10/30 20:59:05;;;;;;;;;;;12.40;99.90;;;;;;15484935;23;20055;-34
2023/10/30 21:05:08;;;;;;;2.53;1.30;;;12.40;99.90;;;;;;15481593;23;19924;-34
2023/10/30 21:11:10;;;;;;;2.90;1.25;;;12.40;99.90;;;;;;15455196;23;20024;-34
2023/10/30 21:17:12;;;;;;;2.22;0.93;;;12.40;99.90;;;;;;15477088;22;20020;-34
2023/10/30 21:23:14;;;;;;;3.28;1.02;;;12.50;99.90;;;;;;15479035;23;20406;-34
2023/10/30 21:29:16;;;;;;;3.72;1.20;;;12.50;99.90;;;;;;15475658;23;20028;-34
2023/10/30 21:35:20;;;;;;;4.00;0.90;;;12.50;99.90;;;;;;15449949;23;20024;-33
2023/10/30 21:41:22;;;;;;;2.33;1.08;;;12.50;99.90;;;;;;15474585;23;20035;-34
2023/10/30 21:47:24;;;;;;;2.88;1.00;;;12.60;99.90;;;;;;15485295;23;20024;-34
2023/10/30 21:53:31;;;;;;;2.47;1.08;;;12.50;99.90;;;;;;15483300;23;20354;-34
2023/10/30 21:59:34;;;;;;;3.90;1.00;;;12.50;99.90;;;;;;15477774;23;20413;-33
2023/10/30 22:05:36;;;;;;;2.97;1.08;;;12.50;99.90;;;;;;15470113;23;20024;-33
2023/10/30 22:11:38;;;;;;;2.75;0.98;;;12.50;99.90;;;;;;15480082;22;20016;-81
2023/10/30 22:17:40;;;;;;;2.33;1.30;;;12.50;99.90;;;;;;15471064;23;20715;-83
2023/10/30 22:23:42;;;;;;;4.45;1.20;;;12.50;99.90;;;;;;15469919;23;20051;-84
2023/10/30 22:29:44;;;;;;;4.35;1.52;;;12.40;99.90;;;;;;15466577;23;20039;-83
2023/10/30 22:35:49;;;;;;;2.58;1.58;;;12.40;99.90;;;;;;15468181;23;20035;-80
2023/10/30 22:41:51;;;;;;;5.78;1.60;;;12.30;99.90;;;;;;15480878;23;20035;-84
2023/10/30 22:47:53;;;;;;;8.20;2.30;;;12.20;99.90;;;;;;15496646;23;20024;-84
2023/10/30 22:53:55;;;;;;;4.13;2.38;;;12.30;99.90;;;;;;15474942;23;20024;-84
2023/10/30 22:59:57;;;;;;;3.85;2.42;;;12.20;99.90;;;;;;15552347;22;20027;-82
2023/10/30 23:05:59;;;;;;;5.15;2.40;;;12.20;99.90;;;;;;15585679;22;20020;-81
2023/10/30 23:12:04;;;;;;;4.22;2.58;;;12.20;99.90;;;;;;15541283;22;20028;-83
2023/10/30 23:18:06;;;;;;;4.68;2.45;;;12.10;99.90;;;;;;15559836;22;20035;-82
2023/10/30 23:24:08;;;;;;;5.28;2.53;;;12.10;99.90;;;;;;15542073;22;20019;-83
2023/10/30 23:30:10;;;;;;;5.47;3.03;;;12.20;99.90;;;;;;15531913;22;20023;-83
2023/10/30 23:36:14;;;;;;;6.83;2.63;;;12.20;99.90;;;;;;15563963;22;20166;-83
2023/10/30 23:42:16;;;;;;;4.90;2.30;;;12.20;99.90;;;;;;15528965;22;20329;-83
2023/10/30 23:48:18;;;;;;;3.45;1.90;;;12.20;99.90;;;;;;15538532;22;20456;-83
2023/10/30 23:54:20;;;;;;;2.50;1.70;;;12.30;99.90;;;;;;15541568;22;20021;-84
